Time;durP1;ratioP1;P1;durP2;ratioP2;P2;SDS_P1;SDS_P2;PMS_P1;PMS_P2;Temp;Humidity;BMP_temperature;BMP_pressure;BME280_temperature;BME280_humidity;BME280_pressure;Samples;Min_cycle;Max_cycle;Signal;HPM_P1;HPM_P2
2021/01/13 00:02:19;;;;;;;9.45;5.32;;;;;;;-0.91;70.68;93046.81;5066491;28;20501;-83
2021/01/13 00:04:45;;;;;;;12.70;6.78;;;;;;;-0.90;70.87;93056.19;5055459;28;20460;-79
2021/01/13 00:07:13;;;;;;;15.73;6.65;;;;;;;-0.96;70.76;93065.09;5060916;28;20035;-78
2021/01/13 00:09:39;;;;;;;10.65;4.70;;;;;;;-1.05;70.09;93060.38;5061965;28;20400;-81
2021/01/13 00:12:05;;;;;;;10.90;5.38;;;;;;;-1.06;70.24;93055.41;5060962;28;20086;-84
2021/01/13 00:14:30;;;;;;;10.20;4.80;;;;;;;-1.11;70.37;93050.97;5051520;28;20025;-81
2021/01/13 00:16:56;;;;;;;9.15;4.70;;;;;;;-1.21;70.63;93064.03;5068044;28;20458;-80
2021/01/13 00:19:21;;;;;;;10.38;4.78;;;;;;;-1.21;70.81;93051.72;5059345;28;20035;-85
2021/01/13 00:21:51;;;;;;;9.05;3.53;;;;;;;-1.23;70.14;93068.72;5062386;28;20068;-80
2021/01/13 00:24:20;;;;;;;7.45;4.15;;;;;;;-1.27;70.94;93046.75;5050822;28;20437;-80
2021/01/13 00:26:46;;;;;;;8.10;4.35;;;;;;;-1.21;70.38;93054.34;5060481;28;20391;-80
2021/01/13 00:29:18;;;;;;;8.32;4.43;;;;;;;-1.23;71.23;93060.88;5066766;28;20052;-80
2021/01/13 00:31:46;;;;;;;8.23;3.75;;;;;;;-1.22;71.41;93065.09;5070925;28;20388;-78
2021/01/13 00:34:14;;;;;;;6.75;3.40;;;;;;;-1.19;71.58;93069.00;5059779;28;20029;-84
2021/01/13 00:36:39;;;;;;;6.20;3.30;;;;;;;-1.12;70.84;93072.13;5067837;28;20447;-86
2021/01/13 00:39:05;;;;;;;6.65;3.17;;;;;;;-1.04;70.66;93066.38;5062810;28;20025;-82
2021/01/13 00:41:32;;;;;;;5.30;2.80;;;;;;;-1.10;70.33;93059.59;5055865;28;20396;-82
2021/01/13 00:43:57;;;;;;;6.25;3.30;;;;;;;-1.07;69.72;93075.53;5063849;28;20025;-82
2021/01/13 00:46:24;;;;;;;5.30;2.95;;;;;;;-1.10;70.12;93080.50;5061157;28;20058;-82
2021/01/13 00:48:50;;;;;;;5.47;3.10;;;;;;;-1.15;69.84;93064.81;5065051;28;20354;-79
2021/01/13 00:51:15;;;;;;;5.45;2.95;;;;;;;-1.14;70.47;93069.81;5065202;28;20103;-81
2021/01/13 00:53:41;;;;;;;7.03;2.42;;;;;;;-1.10;69.77;93057.78;5062178;28;20032;-81
2021/01/13 00:56:06;;;;;;;5.28;3.08;;;;;;;-1.05;70.46;93060.38;5067636;28;20388;-81
2021/01/13 00:58:33;;;;;;;6.30;3.40;;;;;;;-0.95;70.06;93050.97;5070221;28;20032;-81
2021/01/13 01:00:59;;;;;;;4.60;2.72;;;;;;;-0.98;69.63;93064.56;5065654;28;20035;-81
2021/01/13 01:03:25;;;;;;;3.53;2.13;;;;;;;-0.92;68.81;93042.59;5050242;28;20036;-81
2021/01/13 01:05:51;;;;;;;5.80;2.95;;;;;;;-0.86;69.47;93046.78;5054625;28;20024;-81
2021/01/13 01:08:17;;;;;;;4.55;2.40;;;;;;;-0.80;69.82;93045.75;5049986;28;20029;-82
2021/01/13 01:10:49;;;;;;;4.00;2.25;;;;;;;-0.85;69.52;93041.28;5050300;28;20025;-81
2021/01/13 01:13:15;;;;;;;5.05;2.33;;;;;;;-0.82;68.63;93048.59;5049920;28;20128;-81
2021/01/13 01:15:40;;;;;;;4.13;2.22;;;;;;;-0.87;68.58;93034.75;5070881;28;20156;-81
2021/01/13 01:18:06;;;;;;;5.63;2.55;;;;;;;-0.86;69.14;93033.69;5070145;28;20024;-81
2021/01/13 01:20:31;;;;;;;5.55;2.30;;;;;;;-0.82;68.63;93032.13;5057222;28;20033;-81
2021/01/13 01:22:59;;;;;;;5.13;2.58;;;;;;;-0.74;69.36;93036.84;5050278;28;20056;-81
2021/01/13 01:25:26;;;;;;;6.32;2.80;;;;;;;-0.69;69.40;93031.63;5050117;28;20029;-82
2021/01/13 01:27:56;;;;;;;7.45;3.70;;;;;;;-0.69;69.67;93031.63;5056474;28;20480;-81
2021/01/13 01:30:23;;;;;;;10.93;5.35;;;;;;;-0.66;70.47;93033.69;5051314;28;20396;-81
2021/01/13 01:32:49;;;;;;;9.45;4.75;;;;;;;-0.65;70.95;93029.25;5049962;28;20028;-81
2021/01/13 01:35:16;;;;;;;11.93;5.78;;;;;;;-0.67;70.55;93034.75;5051123;28;20056;-81
2021/01/13 01:37:41;;;;;;;11.07;5.72;;;;;;;-0.71;70.80;93025.06;5049558;28;20523;-81
2021/01/13 01:40:10;;;;;;;14.23;7.35;;;;;;;-0.75;70.59;93009.13;5057908;28;20028;-81
2021/01/13 01:42:44;;;;;;;14.27;7.53;;;;;;;-0.82;71.44;93005.97;5070633;28;20028;-81
2021/01/13 01:45:16;;;;;;;17.17;6.72;;;;;;;-0.84;71.35;93011.47;5070865;28;20505;-81
2021/01/13 01:48:09;;;;;;;12.40;6.63;;;;;;;-0.96;71.83;93010.16;5060637;28;20028;-84
2021/01/13 01:50:37;;;;;;;14.45;7.28;;;;;;;-1.08;72.61;92999.94;5050278;28;20033;-83
2021/01/13 01:53:38;;;;;;;14.77;7.07;;;;;;;-1.20;73.27;93002.84;5053724;28;20028;-84
2021/01/13 01:56:19;;;;;;;11.35;6.03;;;;;;;-1.26;73.74;93006.50;5060592;28;20032;-84
2021/01/13 01:58:58;;;;;;;13.98;7.13;;;;;;;-1.26;74.06;93004.66;5051676;28;20108;-84
2021/01/13 02:01:33;;;;;;;10.90;5.55;;;;;;;-1.31;73.42;92991.56;5058231;28;20028;-84
2021/01/13 02:04:05;;;;;;;9.90;4.97;;;;;;;-1.30;72.40;92992.38;5058430;28;20037;-85
2021/01/13 02:06:33;;;;;;;8.13;4.68;;;;;;;-1.24;72.74;92983.50;5056226;28;20487;-84
2021/01/13 02:08:58;;;;;;;6.78;3.97;;;;;;;-1.27;72.67;92982.16;5064076;28;20403;-84
2021/01/13 02:11:25;;;;;;;6.30;3.28;;;;;;;-1.18;72.25;92976.41;5053416;28;20025;-84
2021/01/13 02:13:51;;;;;;;6.25;3.63;;;;;;;-1.09;71.81;92980.09;5049152;28;20095;-84
2021/01/13 02:16:19;;;;;;;7.60;3.63;;;;;;;-1.02;71.26;92978.78;5049061;28;20032;-84
2021/01/13 02:18:46;;;;;;;6.80;3.67;;;;;;;-0.97;71.37;92985.84;5051773;28;20140;-84
2021/01/13 02:21:16;;;;;;;7.13;3.35;;;;;;;-0.96;71.18;92986.63;5061305;28;20094;-83
2021/01/13 02:24:10;;;;;;;6.28;3.88;;;;;;;-0.98;71.17;92986.09;5055250;28;20031;-81
2021/01/13 02:27:27;;;;;;;7.65;4.43;;;;;;;-1.01;71.54;92984.78;5061362;28;20075;-81
2021/01/13 02:30:00;;;;;;;9.38;5.00;;;;;;;-0.99;71.70;92985.31;5033858;28;20511;-81
2021/01/13 02:32:32;;;;;;;9.27;3.65;;;;;;;-0.92;70.74;92995.50;5065339;28;20461;-81
2021/01/13 02:35:13;;;;;;;8.25;4.05;;;;;;;-0.95;71.05;92994.22;5057952;28;20442;-81
2021/01/13 02:38:06;;;;;;;6.28;3.72;;;;;;;-0.92;70.23;92992.91;5063712;28;20045;-80
2021/01/13 02:40:35;;;;;;;9.90;3.83;;;;;;;-0.93;70.32;93004.41;5052988;28;20037;-81
2021/01/13 02:43:02;;;;;;;7.47;4.28;;;;;;;-0.93;70.46;92996.56;5066623;28;20032;-81
2021/01/13 02:45:30;;;;;;;8.55;4.72;;;;;;;-0.96;70.37;92997.09;5064344;28;20056;-81
2021/01/13 02:47:59;;;;;;;8.15;4.47;;;;;;;-0.97;70.45;92985.06;5051394;28;20024;-81
2021/01/13 02:50:25;;;;;;;13.70;6.32;;;;;;;-1.00;70.50;92996.81;5049437;28;20032;-81
2021/01/13 02:53:09;;;;;;;9.18;5.05;;;;;;;-1.03;71.02;92984.28;5054552;28;20024;-81
2021/01/13 02:55:47;;;;;;;13.20;6.35;;;;;;;-1.07;71.36;92978.78;5052864;28;20024;-82
2021/01/13 02:58:18;;;;;;;13.18;6.65;;;;;;;-1.09;71.49;92988.72;5048428;28;20029;-82
2021/01/13 03:00:43;;;;;;;19.17;9.80;;;;;;;-1.11;72.25;92990.81;5048804;28;20047;-82
2021/01/13 03:03:10;;;;;;;16.27;7.88;;;;;;;-1.14;72.09;92982.69;5054909;28;20024;-81
2021/01/13 03:05:36;;;;;;;15.13;7.40;;;;;;;-1.14;71.77;92980.88;5054928;28;20025;-82
2021/01/13 03:08:06;;;;;;;17.08;8.05;;;;;;;-1.13;72.20;92979.81;5056582;28;20541;-81
2021/01/13 03:10:36;;;;;;;19.73;9.70;;;;;;;-1.16;72.65;92980.38;5069141;28;20028;-81
2021/01/13 03:13:04;;;;;;;23.20;9.65;;;;;;;-1.22;72.84;92982.19;5072351;28;20123;-82
2021/01/13 03:15:31;;;;;;;19.17;9.50;;;;;;;-1.26;73.17;92972.50;5074851;28;20488;-82
2021/01/13 03:18:14;;;;;;;23.30;10.20;;;;;;;-1.30;73.14;92972.25;5068449;28;20111;-81
2021/01/13 03:21:03;;;;;;;17.48;9.35;;;;;;;-1.29;73.13;92984.25;5067330;28;20263;-81
2021/01/13 03:23:37;;;;;;;18.92;9.57;;;;;;;-1.29;73.46;92979.03;5072991;28;20482;-81
2021/01/13 03:26:05;;;;;;;21.88;9.82;;;;;;;-1.32;73.89;92973.53;5070209;28;20033;-81
2021/01/13 03:28:33;;;;;;;20.33;10.05;;;;;;;-1.30;73.44;92974.09;5072605;28;20028;-84
2021/01/13 03:30:59;;;;;;;17.85;9.55;;;;;;;-1.29;73.38;92973.03;5064800;28;20038;-84
2021/01/13 03:33:25;;;;;;;27.20;11.07;;;;;;;-1.29;73.96;92979.03;5072124;28;20094;-84
2021/01/13 03:36:08;;;;;;;22.25;9.73;;;;;;;-1.29;73.82;92976.41;5063505;28;20028;-84
2021/01/13 03:38:42;;;;;;;19.13;9.93;;;;;;;-1.32;74.03;92981.38;5073609;28;20047;-84
2021/01/13 03:41:08;;;;;;;24.65;10.82;;;;;;;-1.24;74.05;92991.34;5066691;28;20021;-84
2021/01/13 03:43:36;;;;;;;20.45;9.88;;;;;;;-1.24;74.30;92981.66;5071678;28;20458;-84
2021/01/13 03:46:05;;;;;;;20.92;10.10;;;;;;;-1.20;74.21;92989.78;5068001;28;20033;-84
2021/01/13 03:48:42;;;;;;;23.42;12.00;;;;;;;-1.18;73.99;92985.06;5068051;28;20538;-84
2021/01/13 03:51:25;;;;;;;26.02;12.63;;;;;;;-1.22;74.14;92984.78;5072688;28;20477;-84
2021/01/13 03:53:59;;;;;;;30.33;13.30;;;;;;;-1.21;74.24;92985.56;5061457;28;20094;-83
2021/01/13 03:56:26;;;;;;;25.05;12.20;;;;;;;-1.19;73.80;92980.88;5058746;28;20029;-83
2021/01/13 03:58:52;;;;;;;24.73;12.98;;;;;;;-1.16;73.65;92982.16;5057469;28;20087;-82
2021/01/13 04:01:38;;;;;;;23.95;12.85;;;;;;;-1.09;73.29;92993.94;5062658;28;20039;-83
2021/01/13 04:04:25;;;;;;;27.38;13.52;;;;;;;-1.06;73.50;92993.44;5082500;28;20047;-82
2021/01/13 04:06:59;;;;;;;29.25;12.52;;;;;;;-1.23;73.89;92987.66;5075140;28;20028;-82
2021/01/13 04:09:25;;;;;;;29.25;13.25;;;;;;;-1.19;73.77;92993.16;5074295;28;20035;-81
2021/01/13 04:12:13;;;;;;;29.70;13.57;;;;;;;-1.18;73.80;93003.38;5060598;28;20036;-80
2021/01/13 04:14:52;;;;;;;26.60;12.90;;;;;;;-1.22;74.20;92997.88;5069217;28;20040;-80
2021/01/13 04:17:18;;;;;;;35.33;16.17;;;;;;;-1.19;74.36;93004.41;5071118;28;20025;-80
2021/01/13 04:19:45;;;;;;;30.38;14.50;;;;;;;-1.26;74.72;93003.88;5069860;28;20029;-79
2021/01/13 04:22:13;;;;;;;34.80;15.93;;;;;;;-1.24;74.79;93005.19;5061947;28;20037;-79
2021/01/13 04:24:42;;;;;;;36.92;14.38;;;;;;;-1.18;74.20;93011.22;5053948;28;20017;-79
2021/01/13 04:27:13;;;;;;;29.60;14.55;;;;;;;-1.19;74.66;93014.88;5059390;28;20031;-78
2021/01/13 04:29:39;;;;;;;29.77;13.43;;;;;;;-1.18;74.97;93019.06;5071075;28;20027;-79
2021/01/13 04:32:05;;;;;;;32.35;14.25;;;;;;;-1.15;74.56;93009.91;5070763;28;20103;-79
2021/01/13 04:34:31;;;;;;;26.23;14.75;;;;;;;-1.16;74.59;93010.94;5052742;28;20044;-79
2021/01/13 04:36:57;;;;;;;30.88;13.82;;;;;;;-1.17;74.51;93010.16;5065331;28;20025;-78
2021/01/13 04:39:25;;;;;;;32.92;14.88;;;;;;;-1.15;74.06;93015.13;5070685;28;20403;-79
2021/01/13 04:42:02;;;;;;;28.45;12.25;;;;;;;-1.13;74.14;93008.59;5070653;28;20403;-79
2021/01/13 04:44:35;;;;;;;23.17;11.70;;;;;;;-1.12;73.86;93004.94;5070641;28;20521;-79
2021/01/13 04:47:09;;;;;;;35.97;15.98;;;;;;;-1.08;73.79;93006.00;5070512;28;20043;-79
2021/01/13 04:49:36;;;;;;;30.45;14.02;;;;;;;-1.06;73.68;93003.91;5051756;28;20581;-79
2021/01/13 04:52:09;;;;;;;24.92;13.88;;;;;;;-1.04;73.33;93008.84;5056447;28;20110;-79
2021/01/13 04:54:39;;;;;;;24.10;12.38;;;;;;;-0.99;73.66;93005.47;5066253;28;20036;-78
2021/01/13 04:57:12;;;;;;;28.60;12.25;;;;;;;-0.92;74.18;93004.13;5065518;28;20411;-78
2021/01/13 04:59:59;;;;;;;25.35;11.48;;;;;;;-0.82;72.97;93011.19;5055220;28;20125;-78
2021/01/13 05:02:45;;;;;;;23.48;11.07;;;;;;;-0.87;73.07;93019.06;5063133;28;20116;-79
2021/01/13 05:05:22;;;;;;;24.55;11.60;;;;;;;-0.86;73.53;93028.47;5063694;28;20029;-79
2021/01/13 05:08:12;;;;;;;22.30;10.32;;;;;;;-0.87;72.79;93017.22;5063959;28;20043;-79
2021/01/13 05:10:41;;;;;;;25.38;10.93;;;;;;;-0.86;73.13;93012.78;5058522;28;20032;-79
2021/01/13 05:13:15;;;;;;;20.52;9.95;;;;;;;-0.86;73.24;93018.00;5051370;28;20049;-79
2021/01/13 05:15:57;;;;;;;21.58;10.35;;;;;;;-0.81;72.77;93028.47;5070626;28;20033;-79
2021/01/13 05:18:50;;;;;;;22.70;11.27;;;;;;;-0.87;73.32;93037.38;5064863;28;20036;-80
2021/01/13 05:21:18;;;;;;;23.48;11.48;;;;;;;-0.95;73.34;93035.28;5061600;28;20044;-80
2021/01/13 05:23:54;;;;;;;28.45;11.23;;;;;;;-0.99;74.09;93035.03;5070120;28;20028;-80
2021/01/13 05:26:24;;;;;;;31.95;13.57;;;;;;;-1.01;73.94;93035.28;5062907;28;20096;-80
2021/01/13 05:29:05;;;;;;;19.60;10.43;;;;;;;-1.02;74.51;93031.09;5052775;28;20032;-80
2021/01/13 05:31:43;;;;;;;25.00;10.80;;;;;;;-0.99;74.62;93023.78;5057766;28;20029;-80
2021/01/13 05:34:08;;;;;;;24.77;12.10;;;;;;;-0.94;74.35;93034.22;5060719;28;20039;-80
2021/01/13 05:36:44;;;;;;;25.55;11.18;;;;;;;-0.91;74.21;93033.72;5050048;28;20033;-84
2021/01/13 05:39:11;;;;;;;25.42;11.65;;;;;;;-0.86;74.50;93026.63;5056504;28;20024;-84
2021/01/13 05:41:40;;;;;;;24.20;11.43;;;;;;;-0.82;74.18;93027.69;5057922;28;20098;-84
2021/01/13 05:44:08;;;;;;;24.63;12.27;;;;;;;-0.71;73.61;93032.91;5058956;28;20044;-84
2021/01/13 05:46:47;;;;;;;33.45;13.85;;;;;;;-0.66;73.48;93038.94;5056341;28;20025;-84
2021/01/13 05:49:14;;;;;;;33.20;15.38;;;;;;;-0.61;73.35;93038.94;5049495;28;20032;-84
2021/01/13 05:51:42;;;;;;;29.85;15.30;;;;;;;-0.56;72.98;93046.00;5049507;28;20017;-84
2021/01/13 05:54:15;;;;;;;32.08;13.63;;;;;;;-0.56;72.94;93034.75;5068105;28;20032;-84
2021/01/13 05:56:41;;;;;;;33.67;14.63;;;;;;;-0.57;72.42;93035.78;5064139;28;20074;-81
2021/01/13 05:59:09;;;;;;;30.95;15.55;;;;;;;-0.56;72.37;93042.59;5049301;28;20025;-81
2021/01/13 06:01:47;;;;;;;31.83;14.57;;;;;;;-0.56;72.25;93047.84;5060374;28;20029;-81
2021/01/13 06:04:14;;;;;;;33.75;14.85;;;;;;;-0.53;72.30;93042.06;5070101;28;20028;-81
2021/01/13 06:07:06;;;;;;;27.42;13.85;;;;;;;-0.49;72.61;93053.56;5069100;28;20533;-81
2021/01/13 06:09:42;;;;;;;30.87;14.33;;;;;;;-0.41;72.08;93050.41;5045106;28;20488;-81
2021/01/13 06:12:15;;;;;;;32.13;14.70;;;;;;;-0.36;72.39;93045.19;5060599;28;20024;-81
2021/01/13 06:14:41;;;;;;;30.17;15.02;;;;;;;-0.31;72.33;93060.88;5060880;28;20109;-81
2021/01/13 06:17:16;;;;;;;31.08;15.10;;;;;;;-0.22;71.68;93054.06;5063000;28;20400;-81
2021/01/13 06:19:47;;;;;;;29.58;13.68;;;;;;;-0.15;71.26;93055.63;5080370;28;20427;-81
2021/01/13 06:22:13;;;;;;;22.15;10.68;;;;;;;-0.13;70.83;93056.91;5048986;28;20029;-81
2021/01/13 06:24:38;;;;;;;21.67;10.65;;;;;;;-0.12;70.52;93057.69;5065415;28;20676;-81
2021/01/13 06:27:22;;;;;;;32.83;13.35;;;;;;;-0.06;70.75;93057.44;5053101;28;20040;-81
2021/01/13 06:29:52;;;;;;;21.73;11.55;;;;;;;0.02;70.68;93063.97;5064267;28;20028;-84
2021/01/13 06:32:32;;;;;;;28.10;13.05;;;;;;;0.06;69.85;93067.63;5054315;28;20495;-84
2021/01/13 06:35:03;;;;;;;31.40;14.45;;;;;;;0.07;70.44;93063.16;5062832;28;20057;-84
2021/01/13 06:37:49;;;;;;;40.20;17.05;;;;;;;0.05;69.77;93073.91;5059987;28;20040;-84
2021/01/13 06:40:16;;;;;;;29.88;12.82;;;;;;;-0.04;69.34;93067.63;5067221;28;20086;-82
2021/01/13 06:42:42;;;;;;;37.55;16.05;;;;;;;-0.12;70.06;93076.84;5061789;28;20056;-86
2021/01/13 06:45:09;;;;;;;30.73;11.90;;;;;;;-0.17;70.31;93079.44;5069130;28;20470;-86
2021/01/13 06:47:35;;;;;;;30.15;12.55;;;;;;;-0.21;70.37;93097.50;5061404;28;20017;-79
2021/01/13 06:50:01;;;;;;;26.95;11.95;;;;;;;-0.12;70.48;93096.97;5067373;28;20032;-79
2021/01/13 06:52:32;;;;;;;27.63;12.90;;;;;;;-0.18;70.11;93105.91;5051482;28;20025;-80
2021/01/13 06:55:01;;;;;;;30.83;14.23;;;;;;;-0.23;70.14;93094.38;5059558;28;20135;-79
2021/01/13 06:57:28;;;;;;;27.52;11.95;;;;;;;-0.19;69.63;93097.25;5058248;28;20302;-79
2021/01/13 06:59:54;;;;;;;28.88;13.00;;;;;;;-0.16;69.48;93086.28;5064823;28;20037;-84
2021/01/13 07:02:34;;;;;;;34.40;15.40;;;;;;;-0.13;69.87;93092.81;5048617;28;20561;-84
2021/01/13 07:05:00;;;;;;;41.95;17.83;;;;;;;-0.12;69.56;93097.78;5059467;28;20025;-84
2021/01/13 07:07:26;;;;;;;41.53;16.05;;;;;;;-0.17;70.03;93095.16;5062362;28;20032;-84
2021/01/13 07:09:51;;;;;;;25.00;12.27;;;;;;;-0.17;69.26;93103.00;5065928;28;20018;-84
2021/01/13 07:12:27;;;;;;;25.27;11.30;;;;;;;-0.21;69.57;93105.38;5062582;28;20078;-82
2021/01/13 07:14:58;;;;;;;26.15;11.73;;;;;;;-0.28;69.17;93102.25;5064755;28;20479;-83
2021/01/13 07:17:25;;;;;;;25.15;10.25;;;;;;;-0.38;70.14;93110.13;5069903;28;20036;-80
2021/01/13 07:19:51;;;;;;;19.08;9.70;;;;;;;-0.42;69.51;93116.94;5052335;28;20471;-80
2021/01/13 07:22:18;;;;;;;24.17;11.32;;;;;;;-0.54;70.67;93106.72;5057693;28;20089;-78
2021/01/13 07:24:45;;;;;;;27.92;12.18;;;;;;;-0.58;70.70;93117.97;5057133;28;20043;-78
2021/01/13 07:27:12;;;;;;;25.30;11.63;;;;;;;-0.63;70.34;93096.00;5069373;28;20075;-79
2021/01/13 07:29:38;;;;;;;29.10;11.50;;;;;;;-0.69;70.90;93109.31;5060212;28;20028;-82
2021/01/13 07:32:05;;;;;;;23.20;11.30;;;;;;;-0.68;70.76;93103.84;5067513;28;20025;-83
2021/01/13 07:34:41;;;;;;;28.02;11.88;;;;;;;-0.68;71.15;93109.06;5056061;28;20040;-83
2021/01/13 07:37:25;;;;;;;32.70;12.52;;;;;;;-0.63;70.96;93116.94;5049792;28;20068;-83
2021/01/13 07:40:18;;;;;;;25.90;12.40;;;;;;;-0.57;70.53;93109.06;5066051;28;20067;-82
2021/01/13 07:42:46;;;;;;;28.65;12.15;;;;;;;-0.57;71.22;93109.06;5048485;28;20048;-83
2021/01/13 07:45:15;;;;;;;27.00;11.85;;;;;;;-0.53;71.08;93115.34;5066126;28;20025;-84
2021/01/13 07:47:47;;;;;;;28.15;12.70;;;;;;;-0.43;70.36;93117.97;5048854;28;20099;-85
2021/01/13 07:50:13;;;;;;;28.70;11.82;;;;;;;-0.35;71.43;93120.06;5063317;28;20563;-73
2021/01/13 07:52:44;;;;;;;27.73;10.45;;;;;;;-0.25;70.48;93109.56;5056762;28;20557;-74
2021/01/13 07:55:16;;;;;;;20.85;10.35;;;;;;;-0.15;70.11;93115.84;5052618;28;20082;-74
2021/01/13 07:57:52;;;;;;;24.80;10.30;;;;;;;-0.06;69.31;93106.41;5063983;28;20397;-82
2021/01/13 08:00:28;;;;;;;22.15;9.35;;;;;;;-0.01;69.08;93109.03;5062520;28;20568;-84
2021/01/13 08:03:55;;;;;;;11.65;6.63;;;;;;;0.05;68.43;93109.81;5061687;28;20025;-83
2021/01/13 08:06:24;;;;;;;7.05;3.58;;;;;;;0.04;66.91;93116.06;5068558;28;20025;-83
2021/01/13 08:09:35;;;;;;;11.43;4.80;;;;;;;0.03;66.81;93125.00;5071712;28;20051;-84
2021/01/13 08:12:04;;;;;;;7.85;4.07;;;;;;;0.02;67.96;93113.75;5060925;28;20460;-84
2021/01/13 08:14:54;;;;;;;8.93;4.47;;;;;;;0.05;67.37;93128.91;5057428;28;20151;-84
2021/01/13 08:17:54;;;;;;;17.55;5.97;;;;;;;0.04;66.75;93116.88;5072066;28;20040;-82
2021/01/13 08:21:00;;;;;;;15.85;5.97;;;;;;;0.05;67.05;93121.06;5062257;28;20033;-83
2021/01/13 08:23:35;;;;;;;13.38;6.25;;;;;;;0.09;67.06;93134.44;5065889;28;20032;-82
2021/01/13 08:26:02;;;;;;;20.48;7.63;;;;;;;0.04;66.83;93129.97;5058618;28;20075;-75
2021/01/13 08:28:37;;;;;;;15.35;6.15;;;;;;;0.01;67.75;93140.97;5067567;28;20108;-74
2021/01/13 08:31:04;;;;;;;16.20;7.32;;;;;;;-0.04;67.01;93138.34;5056658;28;20460;-73
2021/01/13 08:33:33;;;;;;;24.98;8.93;;;;;;;-0.09;67.81;93138.38;5063152;28;20045;-74
2021/01/13 08:36:10;;;;;;;16.40;7.25;;;;;;;-0.03;67.90;93150.41;5071034;28;20495;-76
2021/01/13 08:38:36;;;;;;;12.68;5.68;;;;;;;0.00;67.65;93144.66;5071955;28;20047;-72
2021/01/13 08:41:23;;;;;;;18.23;7.78;;;;;;;0.06;67.87;93169.81;5072160;28;20029;-72
2021/01/13 08:44:06;;;;;;;15.48;5.00;;;;;;;-0.02;66.76;93167.69;5053123;28;20448;-73
2021/01/13 08:46:51;;;;;;;;;;;;;;;-0.02;67.73;93157.22;5052699;28;20033;-73
2021/01/13 08:49:25;;;;;;;12.98;7.13;;;;;;;-0.08;68.36;93164.31;5050108;28;19924;-71
2021/01/13 08:52:12;;;;;;;18.15;8.50;;;;;;;-0.08;68.63;93168.75;5063275;28;20377;-73
2021/01/13 08:54:39;;;;;;;20.05;8.02;;;;;;;-0.12;68.58;93162.47;5070486;28;20119;-73
2021/01/13 08:57:07;;;;;;;18.38;8.63;;;;;;;-0.13;69.16;93166.16;5071830;28;20029;-72
2021/01/13 08:59:37;;;;;;;22.77;9.63;;;;;;;-0.15;69.79;93173.47;5054561;28;20071;-74
2021/01/13 09:02:06;;;;;;;24.88;10.25;;;;;;;-0.24;70.19;93181.88;5062858;28;20027;-75
2021/01/13 09:04:58;;;;;;;27.30;10.55;;;;;;;-0.32;70.06;93179.00;5070226;28;20035;-74
2021/01/13 09:07:43;;;;;;;29.55;11.57;;;;;;;-0.39;70.15;93192.31;5055992;28;20030;-73
2021/01/13 09:10:12;;;;;;;26.38;12.30;;;;;;;-0.42;70.91;93187.63;5055158;28;20530;-74
2021/01/13 09:12:45;;;;;;;24.23;11.85;;;;;;;-0.39;71.17;93186.31;5063904;28;20423;-73
2021/01/13 09:15:27;;;;;;;32.47;12.48;;;;;;;-0.36;70.94;93178.72;5064700;28;20119;-73
2021/01/13 09:17:57;;;;;;;29.63;12.40;;;;;;;-0.29;71.35;93175.84;5069892;28;20025;-73
2021/01/13 09:20:32;;;;;;;27.88;12.02;;;;;;;-0.27;70.69;93174.53;5056774;28;20507;-71
2021/01/13 09:23:04;;;;;;;32.22;13.52;;;;;;;-0.25;70.36;93177.66;5051281;28;20526;-73
2021/01/13 09:25:32;;;;;;;32.40;14.77;;;;;;;-0.24;71.13;93178.47;5051443;28;20510;-72
2021/01/13 09:28:03;;;;;;;26.48;11.95;;;;;;;-0.24;70.97;93173.22;5051115;28;20040;-73
2021/01/13 09:30:36;;;;;;;27.65;12.98;;;;;;;-0.27;70.65;93171.13;5051394;28;20024;-73
2021/01/13 09:33:08;;;;;;;24.60;12.13;;;;;;;-0.25;70.73;93166.41;5067576;28;20024;-73
2021/01/13 09:35:36;;;;;;;28.00;12.70;;;;;;;-0.17;70.75;93162.47;5069743;28;20032;-74
2021/01/13 09:38:10;;;;;;;27.88;13.32;;;;;;;-0.13;70.35;93156.44;5062440;28;20033;-72
2021/01/13 09:41:00;;;;;;;24.45;11.20;;;;;;;-0.02;70.67;93163.25;5070820;28;20064;-71
2021/01/13 09:43:46;;;;;;;23.35;11.38;;;;;;;0.10;70.26;93163.00;5063282;28;20036;-72
2021/01/13 09:46:23;;;;;;;25.52;11.00;;;;;;;0.13;69.68;93167.69;5065870;28;20035;-72
2021/01/13 09:49:06;;;;;;;28.02;12.20;;;;;;;0.19;69.82;93157.97;5056850;28;20091;-72
2021/01/13 09:51:34;;;;;;;23.90;12.38;;;;;;;0.37;69.67;93154.03;5062913;28;20020;-71
2021/01/13 09:54:02;;;;;;;20.95;11.15;;;;;;;0.51;69.07;93157.66;5069410;28;20116;-72
2021/01/13 09:56:30;;;;;;;29.75;13.10;;;;;;;0.64;68.95;93150.25;5049541;28;20101;-72
2021/01/13 09:59:23;;;;;;;22.95;10.50;;;;;;;0.69;66.36;93155.47;5053275;28;20106;-76
2021/01/13 10:01:55;;;;;;;9.32;4.00;;;;;;;0.71;64.81;93145.50;5058251;28;20080;-73
2021/01/13 10:04:20;;;;;;;14.40;6.40;;;;;;;0.68;65.31;93133.72;5061206;28;20407;-74
2021/01/13 10:07:02;;;;;;;10.50;5.30;;;;;;;0.78;65.39;93140.75;5056068;28;20021;-74
2021/01/13 10:09:28;;;;;;;13.25;6.25;;;;;;;0.76;64.97;93129.75;5049111;28;20020;-75
2021/01/13 10:11:55;;;;;;;14.82;5.97;;;;;;;0.71;64.89;93122.69;5064678;28;20020;-72
2021/01/13 10:14:21;;;;;;;12.13;5.93;;;;;;;0.58;65.38;93120.63;5056786;28;20060;-73
2021/01/13 10:16:47;;;;;;;12.07;5.45;;;;;;;0.54;65.81;93116.97;5049084;28;20056;-72
2021/01/13 10:19:13;;;;;;;11.48;5.72;;;;;;;0.53;65.65;93126.69;5048977;28;20116;-73
2021/01/13 10:21:44;;;;;;;16.17;6.05;;;;;;;0.56;65.67;93126.16;5062903;28;20466;-74
2021/01/13 10:24:15;;;;;;;13.88;6.60;;;;;;;0.56;66.59;93128.78;5060725;28;20055;-73
2021/01/13 10:26:43;;;;;;;14.38;5.82;;;;;;;0.62;65.55;93124.28;5057005;28;20032;-75
2021/01/13 10:29:10;;;;;;;13.07;5.88;;;;;;;0.49;66.46;93117.78;5062198;28;20056;-78
2021/01/13 10:31:36;;;;;;;16.15;7.75;;;;;;;0.42;66.52;93130.41;5052657;28;20031;-75
2021/01/13 10:34:03;;;;;;;12.80;7.10;;;;;;;0.42;65.24;93140.88;5049042;28;20035;-75
2021/01/13 10:36:36;;;;;;;13.35;6.90;;;;;;;0.48;65.51;93115.44;5051571;28;20029;-75
2021/01/13 10:39:07;;;;;;;15.30;7.53;;;;;;;0.62;66.18;93124.28;5068751;28;20123;-73
2021/01/13 10:41:42;;;;;;;19.17;8.05;;;;;;;0.68;65.17;93125.84;5068296;28;20048;-72
2021/01/13 10:44:27;;;;;;;23.65;9.88;;;;;;;0.68;65.14;93125.84;5062062;28;20035;-73
2021/01/13 10:46:54;;;;;;;28.27;11.15;;;;;;;0.70;65.69;93117.72;5051116;28;20024;-73
2021/01/13 10:49:41;;;;;;;21.70;9.07;;;;;;;0.73;65.44;93114.53;5048165;28;20036;-73
2021/01/13 10:52:14;;;;;;;25.15;10.10;;;;;;;0.77;65.14;93110.31;5048002;28;20112;-73
2021/01/13 10:54:44;;;;;;;18.88;8.20;;;;;;;0.79;64.38;93108.22;5059981;28;20032;-73
2021/01/13 10:57:15;;;;;;;22.58;8.27;;;;;;;0.82;64.56;93112.94;5069714;28;20090;-74
2021/01/13 10:59:42;;;;;;;20.67;8.00;;;;;;;0.80;64.01;93094.81;5069596;28;20020;-73
2021/01/13 11:02:12;;;;;;;24.25;7.95;;;;;;;0.73;63.37;93114.53;5069470;28;20100;-73
2021/01/13 11:04:42;;;;;;;22.35;9.10;;;;;;;0.75;64.39;93101.94;5059784;28;20475;-73
2021/01/13 11:07:13;;;;;;;17.15;7.65;;;;;;;0.77;64.67;93091.94;5048247;28;20045;-74
2021/01/13 11:09:43;;;;;;;11.10;5.70;;;;;;;0.75;64.38;93101.94;5064658;28;20472;-74
2021/01/13 11:12:10;;;;;;;17.95;8.30;;;;;;;0.70;66.45;93097.50;5052186;28;20472;-74
2021/01/13 11:14:43;;;;;;;16.80;8.70;;;;;;;0.71;66.10;93095.66;5052178;28;20512;-74
2021/01/13 11:17:11;;;;;;;23.30;9.63;;;;;;;0.76;66.53;93108.75;5069213;28;20036;-74
2021/01/13 11:19:38;;;;;;;22.95;10.55;;;;;;;0.75;67.12;93099.31;5049441;28;20116;-73
2021/01/13 11:22:04;;;;;;;22.17;10.27;;;;;;;0.78;67.53;93106.66;5049907;28;20032;-74
2021/01/13 11:24:40;;;;;;;23.75;10.90;;;;;;;0.73;67.35;93102.22;5052090;28;20081;-74
2021/01/13 11:27:16;;;;;;;29.38;11.60;;;;;;;0.62;68.03;93097.28;5067991;28;20033;-73
2021/01/13 11:29:44;;;;;;;27.98;13.43;;;;;;;0.54;69.66;93107.28;5064556;28;20087;-73
2021/01/13 11:32:20;;;;;;;34.13;13.52;;;;;;;0.52;70.20;93111.22;5071606;28;20396;-73
2021/01/13 11:34:52;;;;;;;25.30;11.88;;;;;;;0.47;70.88;93109.41;5070802;28;20032;-74
2021/01/13 11:37:25;;;;;;;33.08;13.90;;;;;;;0.36;71.41;93106.03;5051775;28;20021;-75
2021/01/13 11:40:05;;;;;;;38.33;16.50;;;;;;;0.34;72.39;93113.38;5068407;28;20095;-74
2021/01/13 11:42:44;;;;;;;51.55;18.80;;;;;;;0.29;73.00;93110.78;5072516;28;20091;-74
2021/01/13 11:45:35;;;;;;;47.35;17.30;;;;;;;0.23;73.39;93129.41;5072328;28;20103;-75
2021/01/13 11:48:06;;;;;;;32.72;14.93;;;;;;;0.06;73.68;93112.16;5071934;28;20037;-75
2021/01/13 11:50:36;;;;;;;28.02;14.60;;;;;;;0.08;72.91;93120.53;5071185;28;20020;-73